sensor_id;sensor_type;location;lat;lon;timestamp;noise_LAeq;noise_LA_min;noise_LA_max;noise_LA01;noise_LA95
48967;Laerm;46511;53.148;8.204;2024-03-23T00:55:30;42.33;40.33;47.24;;
48967;Laerm;46511;53.148;8.204;2024-03-23T00:57:55;43.55;40.13;54.81;;
48967;Laerm;46511;53.148;8.204;2024-03-23T01:00:21;42.40;40.03;47.36;;
48967;Laerm;46511;53.148;8.204;2024-03-23T01:02:46;42.87;40.03;52.06;;
48967;Laerm;46511;53.148;8.204;2024-03-23T01:05:12;50.73;40.23;65.93;;
48967;Laerm;46511;53.148;8.204;2024-03-23T01:07:37;43.77;40.23;62.69;;
48967;Laerm;46511;53.148;8.204;2024-03-23T01:10:03;43.10;40.43;53.92;;
48967;Laerm;46511;53.148;8.204;2024-03-23T01:12:29;42.79;40.33;47.28;;
48967;Laerm;46511;53.148;8.204;2024-03-23T01:14:55;42.73;39.92;45.33;;
48967;Laerm;46511;53.148;8.204;2024-03-23T01:17:20;42.23;40.23;45.42;;
48967;Laerm;46511;53.148;8.204;2024-03-23T01:19:46;42.48;39.92;47.77;;
48967;Laerm;46511;53.148;8.204;2024-03-23T01:22:11;42.39;40.43;45.07;;
48967;Laerm;46511;53.148;8.204;2024-03-23T01:24:37;50.34;40.23;67.58;;
48967;Laerm;46511;53.148;8.204;2024-03-23T01:27:03;44.88;40.13;55.74;;
48967;Laerm;46511;53.148;8.204;2024-03-23T01:29:29;41.92;39.92;45.04;;
48967;Laerm;46511;53.148;8.204;2024-03-23T01:31:54;41.80;39.81;46.07;;
48967;Laerm;46511;53.148;8.204;2024-03-23T01:34:20;41.89;39.81;45.94;;
48967;Laerm;46511;53.148;8.204;2024-03-23T01:36:46;42.88;40.13;46.43;;
48967;Laerm;46511;53.148;8.204;2024-03-23T01:39:13;43.21;40.43;48.92;;
48967;Laerm;46511;53.148;8.204;2024-03-23T01:41:40;43.46;40.13;52.89;;
48967;Laerm;46511;53.148;8.204;2024-03-23T01:44:07;42.47;40.03;45.14;;
48967;Laerm;46511;53.148;8.204;2024-03-23T01:46:37;49.01;40.43;64.59;;
48967;Laerm;46511;53.148;8.204;2024-03-23T01:49:04;42.57;40.23;48.34;;
48967;Laerm;46511;53.148;8.204;2024-03-23T01:51:30;42.72;39.92;52.63;;
48967;Laerm;46511;53.148;8.204;2024-03-23T01:53:56;43.12;40.23;56.79;;
48967;Laerm;46511;53.148;8.204;2024-03-23T01:56:22;48.05;40.53;61.67;;
48967;Laerm;46511;53.148;8.204;2024-03-23T01:58:47;42.85;40.33;45.69;;
48967;Laerm;46511;53.148;8.204;2024-03-23T02:01:13;43.45;40.33;54.02;;
48967;Laerm;46511;53.148;8.204;2024-03-23T02:03:38;51.15;40.13;63.10;;
48967;Laerm;46511;53.148;8.204;2024-03-23T02:06:04;54.27;40.62;65.36;;
48967;Laerm;46511;53.148;8.204;2024-03-23T02:08:32;43.84;40.13;54.43;;
48967;Laerm;46511;53.148;8.204;2024-03-23T02:10:58;45.00;40.23;62.43;;
48967;Laerm;46511;53.148;8.204;2024-03-23T02:13:24;58.14;40.23;66.64;;
48967;Laerm;46511;53.148;8.204;2024-03-23T02:15:49;42.11;39.92;46.76;;
48967;Laerm;46511;53.148;8.204;2024-03-23T02:18:15;42.90;40.33;47.18;;
48967;Laerm;46511;53.148;8.204;2024-03-23T02:20:40;42.63;40.43;48.52;;
48967;Laerm;46511;53.148;8.204;2024-03-23T02:23:13;42.71;40.53;45.20;;
48967;Laerm;46511;53.148;8.204;2024-03-23T02:25:38;43.23;40.71;47.79;;
48967;Laerm;46511;53.148;8.204;2024-03-23T02:28:04;43.34;40.89;47.63;;
48967;Laerm;46511;53.148;8.204;2024-03-23T02:30:30;42.72;40.62;51.97;;
48967;Laerm;46511;53.148;8.204;2024-03-23T02:32:55;43.06;40.62;44.80;;
48967;Laerm;46511;53.148;8.204;2024-03-23T02:35:21;49.57;40.53;64.58;;
48967;Laerm;46511;53.148;8.204;2024-03-23T02:37:47;42.81;40.62;46.78;;
48967;Laerm;46511;53.148;8.204;2024-03-23T02:40:15;46.07;40.89;57.94;;
48967;Laerm;46511;53.148;8.204;2024-03-23T02:42:43;46.15;40.23;59.30;;
48967;Laerm;46511;53.148;8.204;2024-03-23T02:45:09;42.71;40.23;50.34;;
48967;Laerm;46511;53.148;8.204;2024-03-23T02:47:34;42.23;40.03;44.16;;
48967;Laerm;46511;53.148;8.204;2024-03-23T02:50:00;42.62;40.33;46.57;;
48967;Laerm;46511;53.148;8.204;2024-03-23T02:52:26;42.78;40.33;45.01;;
48967;Laerm;46511;53.148;8.204;2024-03-23T02:54:51;42.49;40.23;44.19;;
48967;Laerm;46511;53.148;8.204;2024-03-23T02:57:17;42.82;40.43;45.04;;
48967;Laerm;46511;53.148;8.204;2024-03-23T02:59:43;43.57;41.22;49.41;;
48967;Laerm;46511;53.148;8.204;2024-03-23T03:02:08;53.91;40.53;69.55;;
48967;Laerm;46511;53.148;8.204;2024-03-23T03:04:34;54.71;40.53;69.08;;
48967;Laerm;46511;53.148;8.204;2024-03-23T03:07:00;42.70;40.33;46.07;;
48967;Laerm;46511;53.148;8.204;2024-03-23T03:09:25;43.31;41.06;45.99;;
48967;Laerm;46511;53.148;8.204;2024-03-23T03:11:51;43.63;41.06;49.00;;
48967;Laerm;46511;53.148;8.204;2024-03-23T03:14:16;43.17;40.89;46.80;;
48967;Laerm;46511;53.148;8.204;2024-03-23T03:16:43;43.00;40.62;47.86;;
48967;Laerm;46511;53.148;8.204;2024-03-23T03:19:08;46.75;41.06;58.92;;
48967;Laerm;46511;53.148;8.204;2024-03-23T03:21:36;44.26;41.89;53.24;;
48967;Laerm;46511;53.148;8.204;2024-03-23T03:24:02;43.25;40.71;46.71;;
48967;Laerm;46511;53.148;8.204;2024-03-23T03:26:27;43.92;41.14;51.89;;
48967;Laerm;46511;53.148;8.204;2024-03-23T03:28:53;52.54;41.75;66.15;;
48967;Laerm;46511;53.148;8.204;2024-03-23T03:31:19;43.16;40.62;49.28;;
48967;Laerm;46511;53.148;8.204;2024-03-23T03:33:44;43.05;40.53;48.71;;
48967;Laerm;46511;53.148;8.204;2024-03-23T03:36:10;43.31;40.89;50.52;;
48967;Laerm;46511;53.148;8.204;2024-03-23T03:38:36;43.34;40.98;47.06;;
48967;Laerm;46511;53.148;8.204;2024-03-23T03:41:02;43.52;41.30;46.95;;
48967;Laerm;46511;53.148;8.204;2024-03-23T03:43:28;43.82;41.30;46.78;;
48967;Laerm;46511;53.148;8.204;2024-03-23T03:45:54;43.35;40.89;47.40;;
48967;Laerm;46511;53.148;8.204;2024-03-23T03:48:20;51.09;41.38;65.44;;
48967;Laerm;46511;53.148;8.204;2024-03-23T03:50:46;50.71;41.38;66.05;;
48967;Laerm;46511;53.148;8.204;2024-03-23T03:53:11;43.32;40.79;47.30;;
48967;Laerm;46511;53.148;8.204;2024-03-23T03:55:37;49.80;41.06;63.13;;
48967;Laerm;46511;53.148;8.204;2024-03-23T03:58:03;49.81;41.53;65.39;;
48967;Laerm;46511;53.148;8.204;2024-03-23T04:00:30;43.99;41.38;51.19;;
48967;Laerm;46511;53.148;8.204;2024-03-23T04:02:56;43.58;41.38;49.75;;
48967;Laerm;46511;53.148;8.204;2024-03-23T04:05:22;43.22;40.62;52.25;;
48967;Laerm;46511;53.148;8.204;2024-03-23T04:07:47;44.08;41.38;55.54;;
48967;Laerm;46511;53.148;8.204;2024-03-23T04:10:13;43.92;41.30;56.25;;
48967;Laerm;46511;53.148;8.204;2024-03-23T04:12:40;43.63;40.98;54.13;;
48967;Laerm;46511;53.148;8.204;2024-03-23T04:15:05;43.95;41.22;58.52;;
48967;Laerm;46511;53.148;8.204;2024-03-23T04:17:31;50.37;41.75;67.87;;
48967;Laerm;46511;53.148;8.204;2024-03-23T04:20:00;50.83;42.09;65.85;;
48967;Laerm;46511;53.148;8.204;2024-03-23T04:22:27;51.74;42.35;63.46;;
48967;Laerm;46511;53.148;8.204;2024-03-23T04:24:56;47.64;42.42;61.64;;
48967;Laerm;46511;53.148;8.204;2024-03-23T04:27:22;51.78;42.35;65.37;;
48967;Laerm;46511;53.148;8.204;2024-03-23T04:29:52;48.70;41.89;60.65;;
48967;Laerm;46511;53.148;8.204;2024-03-23T04:32:21;50.74;42.76;63.62;;
48967;Laerm;46511;53.148;8.204;2024-03-23T04:34:47;52.13;42.71;65.74;;
48967;Laerm;46511;53.148;8.204;2024-03-23T04:37:13;53.40;43.34;64.91;;
48967;Laerm;46511;53.148;8.204;2024-03-23T04:39:39;53.25;43.77;64.70;;
48967;Laerm;46511;53.148;8.204;2024-03-23T04:42:04;47.62;43.54;58.66;;
48967;Laerm;46511;53.148;8.204;2024-03-23T04:44:30;47.26;42.98;57.21;;
48967;Laerm;46511;53.148;8.204;2024-03-23T04:47:00;47.27;42.93;62.00;;
48967;Laerm;46511;53.148;8.204;2024-03-23T04:49:26;50.52;42.82;64.17;;
48967;Laerm;46511;53.148;8.204;2024-03-23T04:51:51;51.92;43.24;67.19;;
48967;Laerm;46511;53.148;8.204;2024-03-23T04:54:17;47.31;42.98;57.59;;
48967;Laerm;46511;53.148;8.204;2024-03-23T04:56:42;47.22;42.64;59.66;;
48967;Laerm;46511;53.148;8.204;2024-03-23T04:59:08;46.96;42.82;61.43;;
48967;Laerm;46511;53.148;8.204;2024-03-23T05:01:34;45.85;42.71;58.09;;
48967;Laerm;46511;53.148;8.204;2024-03-23T05:04:00;45.90;42.47;57.98;;
48967;Laerm;46511;53.148;8.204;2024-03-23T05:06:25;45.93;42.03;61.34;;
48967;Laerm;46511;53.148;8.204;2024-03-23T05:08:51;45.37;42.71;55.07;;
48967;Laerm;46511;53.148;8.204;2024-03-23T05:11:17;46.16;42.47;55.74;;
48967;Laerm;46511;53.148;8.204;2024-03-23T05:13:44;55.22;42.65;67.87;;
48967;Laerm;46511;53.148;8.204;2024-03-23T05:16:09;53.62;43.04;70.98;;
48967;Laerm;46511;53.148;8.204;2024-03-23T05:18:35;50.93;42.88;66.64;;
48967;Laerm;46511;53.148;8.204;2024-03-23T05:21:01;54.08;42.71;74.50;;
48967;Laerm;46511;53.148;8.204;2024-03-23T05:23:28;55.08;42.76;69.19;;
48967;Laerm;46511;53.148;8.204;2024-03-23T05:25:54;46.58;42.82;57.89;;
48967;Laerm;46511;53.148;8.204;2024-03-23T05:28:21;53.75;43.54;65.87;;
48967;Laerm;46511;53.148;8.204;2024-03-23T05:30:51;50.29;43.58;66.19;;
48967;Laerm;46511;53.148;8.204;2024-03-23T05:33:18;47.87;42.98;64.36;;
48967;Laerm;46511;53.148;8.204;2024-03-23T05:35:44;51.04;42.65;64.93;;
48967;Laerm;46511;53.148;8.204;2024-03-23T05:38:09;52.40;42.47;67.30;;
48967;Laerm;46511;53.148;8.204;2024-03-23T05:40:35;52.12;42.93;64.69;;
48967;Laerm;46511;53.148;8.204;2024-03-23T05:43:03;53.42;43.04;64.68;;
48967;Laerm;46511;53.148;8.204;2024-03-23T05:45:29;51.81;42.47;66.43;;
48967;Laerm;46511;53.148;8.204;2024-03-23T05:47:55;56.42;43.04;68.94;;
48967;Laerm;46511;53.148;8.204;2024-03-23T05:50:22;47.47;43.14;59.36;;
48967;Laerm;46511;53.148;8.204;2024-03-23T05:52:49;56.40;43.29;70.33;;
48967;Laerm;46511;53.148;8.204;2024-03-23T05:55:15;51.70;42.82;64.39;;
48967;Laerm;46511;53.148;8.204;2024-03-23T05:57:40;47.67;43.14;61.23;;
48967;Laerm;46511;53.148;8.204;2024-03-23T06:00:07;53.80;42.82;66.75;;
48967;Laerm;46511;53.148;8.204;2024-03-23T06:02:42;52.61;43.54;66.68;;
48967;Laerm;46511;53.148;8.204;2024-03-23T06:05:11;49.37;43.29;62.59;;
48967;Laerm;46511;53.148;8.204;2024-03-23T06:07:37;52.18;43.29;65.89;;
48967;Laerm;46511;53.148;8.204;2024-03-23T06:10:04;52.59;42.82;67.38;;
48967;Laerm;46511;53.148;8.204;2024-03-23T06:12:31;52.78;42.71;65.15;;
48967;Laerm;46511;53.148;8.204;2024-03-23T06:14:57;52.97;42.65;65.33;;
48967;Laerm;46511;53.148;8.204;2024-03-23T06:17:23;52.47;42.82;65.09;;
48967;Laerm;46511;53.148;8.204;2024-03-23T06:19:48;55.20;42.82;68.77;;
48967;Laerm;46511;53.148;8.204;2024-03-23T06:22:14;45.33;42.35;56.56;;
48967;Laerm;46511;53.148;8.204;2024-03-23T06:24:40;48.79;42.53;62.71;;
48967;Laerm;46511;53.148;8.204;2024-03-23T06:27:06;53.61;42.88;65.14;;
48967;Laerm;46511;53.148;8.204;2024-03-23T06:29:31;52.87;43.14;67.61;;
48967;Laerm;46511;53.148;8.204;2024-03-23T06:31:58;64.07;43.77;79.01;;
48967;Laerm;46511;53.148;8.204;2024-03-23T06:34:24;55.26;42.98;67.78;;
48967;Laerm;46511;53.148;8.204;2024-03-23T06:36:50;53.11;43.63;62.76;;
48967;Laerm;46511;53.148;8.204;2024-03-23T06:39:16;53.07;42.41;69.29;;
48967;Laerm;46511;53.148;8.204;2024-03-23T06:41:51;53.91;42.76;66.06;;
48967;Laerm;46511;53.148;8.204;2024-03-23T06:44:18;52.29;42.35;66.10;;
48967;Laerm;46511;53.148;8.204;2024-03-23T06:46:44;52.65;42.41;64.93;;
48967;Laerm;46511;53.148;8.204;2024-03-23T06:49:10;51.76;42.29;65.18;;
48967;Laerm;46511;53.148;8.204;2024-03-23T06:51:36;51.22;42.03;63.53;;
48967;Laerm;46511;53.148;8.204;2024-03-23T06:54:04;48.62;42.16;60.12;;
48967;Laerm;46511;53.148;8.204;2024-03-23T06:56:30;55.33;42.93;68.39;;
48967;Laerm;46511;53.148;8.204;2024-03-23T06:58:56;47.99;41.82;60.73;;
48967;Laerm;46511;53.148;8.204;2024-03-23T07:01:22;53.25;42.03;63.25;;
48967;Laerm;46511;53.148;8.204;2024-03-23T07:03:47;51.02;42.35;63.80;;
48967;Laerm;46511;53.148;8.204;2024-03-23T07:06:13;52.52;42.41;66.99;;
48967;Laerm;46511;53.148;8.204;2024-03-23T07:08:38;51.55;42.16;62.76;;
48967;Laerm;46511;53.148;8.204;2024-03-23T07:11:04;51.38;42.16;66.75;;
48967;Laerm;46511;53.148;8.204;2024-03-23T07:13:30;51.78;42.59;63.14;;
48967;Laerm;46511;53.148;8.204;2024-03-23T07:15:56;52.46;42.22;62.36;;
48967;Laerm;46511;53.148;8.204;2024-03-23T07:18:22;53.99;41.82;69.91;;
48967;Laerm;46511;53.148;8.204;2024-03-23T07:20:53;52.99;43.04;66.73;;
48967;Laerm;46511;53.148;8.204;2024-03-23T07:23:19;51.13;41.82;63.13;;
48967;Laerm;46511;53.148;8.204;2024-03-23T07:25:44;50.31;41.68;62.46;;
48967;Laerm;46511;53.148;8.204;2024-03-23T07:28:10;51.88;42.41;63.81;;
48967;Laerm;46511;53.148;8.204;2024-03-23T07:30:35;52.93;42.53;65.11;;
48967;Laerm;46511;53.148;8.204;2024-03-23T07:33:01;50.74;42.71;63.39;;
48967;Laerm;46511;53.148;8.204;2024-03-23T07:35:26;52.96;42.29;66.92;;
48967;Laerm;46511;53.148;8.204;2024-03-23T07:37:52;52.62;41.61;68.22;;
48967;Laerm;46511;53.148;8.204;2024-03-23T07:40:17;55.65;43.39;67.81;;
48967;Laerm;46511;53.148;8.204;2024-03-23T07:42:43;54.40;43.34;67.60;;
48967;Laerm;46511;53.148;8.204;2024-03-23T07:45:09;57.31;43.81;66.79;;
48967;Laerm;46511;53.148;8.204;2024-03-23T07:47:34;54.88;42.76;66.05;;
48967;Laerm;46511;53.148;8.204;2024-03-23T07:50:00;55.21;42.53;69.47;;
48967;Laerm;46511;53.148;8.204;2024-03-23T07:52:29;54.09;43.81;64.12;;
48967;Laerm;46511;53.148;8.204;2024-03-23T07:54:54;56.92;43.24;69.95;;
48967;Laerm;46511;53.148;8.204;2024-03-23T07:57:20;54.79;43.19;65.12;;
48967;Laerm;46511;53.148;8.204;2024-03-23T07:59:45;54.16;43.24;65.26;;
48967;Laerm;46511;53.148;8.204;2024-03-23T08:02:11;54.99;43.09;68.67;;
48967;Laerm;46511;53.148;8.204;2024-03-23T08:04:36;51.04;42.82;69.25;;
48967;Laerm;46511;53.148;8.204;2024-03-23T08:07:02;49.09;42.29;62.20;;
48967;Laerm;46511;53.148;8.204;2024-03-23T08:09:27;52.55;42.82;69.10;;
48967;Laerm;46511;53.148;8.204;2024-03-23T08:11:53;52.30;43.04;63.02;;
48967;Laerm;46511;53.148;8.204;2024-03-23T08:14:18;56.42;43.34;68.96;;
48967;Laerm;46511;53.148;8.204;2024-03-23T08:16:45;56.41;42.88;66.52;;
48967;Laerm;46511;53.148;8.204;2024-03-23T08:19:14;48.20;43.49;58.58;;
48967;Laerm;46511;53.148;8.204;2024-03-23T08:21:40;53.33;43.04;64.79;;
48967;Laerm;46511;53.148;8.204;2024-03-23T08:24:05;52.54;43.14;63.40;;
48967;Laerm;46511;53.148;8.204;2024-03-23T08:26:31;57.12;43.54;71.44;;
48967;Laerm;46511;53.148;8.204;2024-03-23T08:28:56;53.39;43.58;66.79;;
48967;Laerm;46511;53.148;8.204;2024-03-23T08:31:22;47.35;43.34;57.19;;
48967;Laerm;46511;53.148;8.204;2024-03-23T08:33:48;53.41;44.65;64.87;;
48967;Laerm;46511;53.148;8.204;2024-03-23T08:36:14;51.21;44.15;61.85;;
48967;Laerm;46511;53.148;8.204;2024-03-23T08:38:40;46.63;43.99;59.50;;
48967;Laerm;46511;53.148;8.204;2024-03-23T08:41:07;56.71;43.86;67.42;;
48967;Laerm;46511;53.148;8.204;2024-03-23T08:43:41;54.66;44.07;67.89;;
48967;Laerm;46511;53.148;8.204;2024-03-23T08:46:07;55.68;44.35;66.97;;
48967;Laerm;46511;53.148;8.204;2024-03-23T08:48:39;58.14;44.11;67.97;;
48967;Laerm;46511;53.148;8.204;2024-03-23T08:51:06;55.78;44.43;64.98;;
48967;Laerm;46511;53.148;8.204;2024-03-23T08:53:33;49.38;43.29;62.63;;
48967;Laerm;46511;53.148;8.204;2024-03-23T08:56:00;55.68;43.34;67.68;;
48967;Laerm;46511;53.148;8.204;2024-03-23T08:58:29;57.32;43.68;72.11;;
48967;Laerm;46511;53.148;8.204;2024-03-23T09:00:56;55.41;43.72;67.41;;
48967;Laerm;46511;53.148;8.204;2024-03-23T09:03:22;52.35;42.65;64.67;;
48967;Laerm;46511;53.148;8.204;2024-03-23T09:05:49;53.64;42.93;65.93;;
48967;Laerm;46511;53.148;8.204;2024-03-23T09:08:14;54.20;43.34;65.54;;
48967;Laerm;46511;53.148;8.204;2024-03-23T09:10:40;55.58;43.81;65.75;;
48967;Laerm;46511;53.148;8.204;2024-03-23T09:13:06;52.25;43.04;63.46;;
48967;Laerm;46511;53.148;8.204;2024-03-23T09:15:36;55.41;43.86;64.64;;
48967;Laerm;46511;53.148;8.204;2024-03-23T09:18:03;58.27;43.90;67.67;;
48967;Laerm;46511;53.148;8.204;2024-03-23T09:20:28;54.55;42.71;65.55;;
48967;Laerm;46511;53.148;8.204;2024-03-23T09:22:54;50.58;42.53;61.54;;
48967;Laerm;46511;53.148;8.204;2024-03-23T09:25:20;52.97;43.19;72.56;;
48967;Laerm;46511;53.148;8.204;2024-03-23T09:27:48;52.48;43.54;70.42;;
48967;Laerm;46511;53.148;8.204;2024-03-23T09:30:14;54.85;43.63;65.65;;
48967;Laerm;46511;53.148;8.204;2024-03-23T09:32:42;55.44;42.76;73.85;;
48967;Laerm;46511;53.148;8.204;2024-03-23T09:35:08;48.34;42.71;66.34;;
48967;Laerm;46511;53.148;8.204;2024-03-23T09:37:33;53.21;42.93;68.06;;
48967;Laerm;46511;53.148;8.204;2024-03-23T09:39:59;56.29;43.34;67.20;;
48967;Laerm;46511;53.148;8.204;2024-03-23T09:42:24;57.36;43.63;68.23;;
48967;Laerm;46511;53.148;8.204;2024-03-23T09:44:51;53.31;43.49;68.09;;
48967;Laerm;46511;53.148;8.204;2024-03-23T09:47:17;54.32;44.01;65.47;;
48967;Laerm;46511;53.148;8.204;2024-03-23T09:49:43;54.44;44.31;66.55;;
48967;Laerm;46511;53.148;8.204;2024-03-23T09:52:09;53.88;43.86;64.76;;
48967;Laerm;46511;53.148;8.204;2024-03-23T09:54:34;55.46;45.33;66.86;;
48967;Laerm;46511;53.148;8.204;2024-03-23T09:57:00;53.09;43.99;65.04;;
48967;Laerm;46511;53.148;8.204;2024-03-23T09:59:26;55.36;45.33;69.16;;
48967;Laerm;46511;53.148;8.204;2024-03-23T10:01:53;56.48;45.36;75.27;;
48967;Laerm;46511;53.148;8.204;2024-03-23T10:04:54;54.59;44.47;69.95;;
48967;Laerm;46511;53.148;8.204;2024-03-23T10:07:20;53.45;44.47;63.70;;
48967;Laerm;46511;53.148;8.204;2024-03-23T10:09:47;52.33;43.72;64.41;;
48967;Laerm;46511;53.148;8.204;2024-03-23T10:12:15;53.71;43.19;69.17;;
48967;Laerm;46511;53.148;8.204;2024-03-23T10:14:41;51.25;43.34;63.60;;
48967;Laerm;46511;53.148;8.204;2024-03-23T10:17:18;54.77;44.51;78.23;;
48967;Laerm;46511;53.148;8.204;2024-03-23T10:19:45;53.09;43.99;64.09;;
48967;Laerm;46511;53.148;8.204;2024-03-23T10:22:14;54.93;43.81;77.44;;
48967;Laerm;46511;53.148;8.204;2024-03-23T10:24:41;56.35;43.86;72.70;;
48967;Laerm;46511;53.148;8.204;2024-03-23T10:27:07;53.74;43.44;68.16;;
48967;Laerm;46511;53.148;8.204;2024-03-23T10:29:33;53.54;43.86;62.90;;
48967;Laerm;46511;53.148;8.204;2024-03-23T10:32:11;56.68;44.31;66.37;;
48967;Laerm;46511;53.148;8.204;2024-03-23T10:34:38;54.78;43.81;68.20;;
48967;Laerm;46511;53.148;8.204;2024-03-23T10:37:04;55.92;44.07;68.06;;
48967;Laerm;46511;53.148;8.204;2024-03-23T10:39:39;57.34;45.66;67.32;;
48967;Laerm;46511;53.148;8.204;2024-03-23T10:42:06;53.34;43.99;62.88;;
48967;Laerm;46511;53.148;8.204;2024-03-23T10:44:33;55.65;43.81;76.08;;
48967;Laerm;46511;53.148;8.204;2024-03-23T10:47:00;54.03;43.86;68.15;;
48967;Laerm;46511;53.148;8.204;2024-03-23T10:49:28;53.20;43.49;66.50;;
48967;Laerm;46511;53.148;8.204;2024-03-23T10:51:56;55.28;43.86;66.46;;
48967;Laerm;46511;53.148;8.204;2024-03-23T10:54:24;52.99;42.82;62.60;;
48967;Laerm;46511;53.148;8.204;2024-03-23T10:57:14;55.55;44.03;64.42;;
48967;Laerm;46511;53.148;8.204;2024-03-23T10:59:38;52.58;44.11;65.65;;
48967;Laerm;46511;53.148;8.204;2024-03-23T11:02:05;57.07;44.16;67.06;;
48967;Laerm;46511;53.148;8.204;2024-03-23T11:04:37;55.42;44.87;64.01;;
48967;Laerm;46511;53.148;8.204;2024-03-23T11:07:31;52.44;44.23;77.89;;
48967;Laerm;46511;53.148;8.204;2024-03-23T11:09:58;56.15;44.62;69.96;;
48967;Laerm;46511;53.148;8.204;2024-03-23T11:14:51;53.07;43.49;63.55;;
48967;Laerm;46511;53.148;8.204;2024-03-23T11:17:24;55.04;44.69;68.17;;
48967;Laerm;46511;53.148;8.204;2024-03-23T11:20:04;56.87;43.90;70.00;;
48967;Laerm;46511;53.148;8.204;2024-03-23T11:22:47;57.45;44.90;70.19;;
48967;Laerm;46511;53.148;8.204;2024-03-23T11:27:45;56.34;44.15;67.88;;
48967;Laerm;46511;53.148;8.204;2024-03-23T11:30:19;54.99;44.11;75.70;;
48967;Laerm;46511;53.148;8.204;2024-03-23T11:32:48;57.92;44.39;81.28;;
48967;Laerm;46511;53.148;8.204;2024-03-23T11:35:31;54.98;45.27;74.89;;
48967;Laerm;46511;53.148;8.204;2024-03-23T11:38:05;52.28;45.01;62.33;;
48967;Laerm;46511;53.148;8.204;2024-03-23T11:40:32;56.09;46.25;66.65;;
48967;Laerm;46511;53.148;8.204;2024-03-23T11:42:59;53.96;45.75;67.51;;
48967;Laerm;46511;53.148;8.204;2024-03-23T11:45:25;56.93;48.64;70.11;;
48967;Laerm;46511;53.148;8.204;2024-03-23T11:48:04;56.64;46.25;86.99;;
48967;Laerm;46511;53.148;8.204;2024-03-23T11:50:29;56.11;46.71;67.35;;
48967;Laerm;46511;53.148;8.204;2024-03-23T11:53:18;58.48;47.54;69.05;;
48967;Laerm;46511;53.148;8.204;2024-03-23T11:58:14;54.70;46.45;65.46;;
48967;Laerm;46511;53.148;8.204;2024-03-23T12:00:40;57.52;46.52;74.32;;
48967;Laerm;46511;53.148;8.204;2024-03-23T12:03:06;69.16;46.87;98.25;;
48967;Laerm;46511;53.148;8.204;2024-03-23T12:05:32;56.57;45.27;68.03;;
48967;Laerm;46511;53.148;8.204;2024-03-23T12:10:51;56.28;44.15;67.42;;
48967;Laerm;46511;53.148;8.204;2024-03-23T12:13:18;55.28;44.58;65.94;;
48967;Laerm;46511;53.148;8.204;2024-03-23T12:15:45;57.06;44.27;66.80;;
48967;Laerm;46511;53.148;8.204;2024-03-23T12:18:11;52.48;43.77;65.43;;
48967;Laerm;46511;53.148;8.204;2024-03-23T12:20:37;54.94;43.94;65.46;;
48967;Laerm;46511;53.148;8.204;2024-03-23T12:23:11;57.00;45.45;66.87;;
48967;Laerm;46511;53.148;8.204;2024-03-23T12:25:40;50.73;44.11;66.76;;
48967;Laerm;46511;53.148;8.204;2024-03-23T12:28:07;53.76;44.07;65.11;;
48967;Laerm;46511;53.148;8.204;2024-03-23T12:30:34;56.03;44.51;66.47;;
48967;Laerm;46511;53.148;8.204;2024-03-23T12:33:00;52.77;44.03;63.36;;
48967;Laerm;46511;53.148;8.204;2024-03-23T12:35:26;54.55;43.81;65.50;;
48967;Laerm;46511;53.148;8.204;2024-03-23T12:37:51;55.80;45.97;65.11;;
48967;Laerm;46511;53.148;8.204;2024-03-23T12:40:17;54.88;44.94;66.15;;
48967;Laerm;46511;53.148;8.204;2024-03-23T12:42:42;54.80;45.23;67.75;;
48967;Laerm;46511;53.148;8.204;2024-03-23T12:45:08;53.26;44.35;65.53;;
48967;Laerm;46511;53.148;8.204;2024-03-23T12:47:34;55.39;44.87;67.31;;
48967;Laerm;46511;53.148;8.204;2024-03-23T12:50:00;54.19;44.07;65.95;;
48967;Laerm;46511;53.148;8.204;2024-03-23T12:52:25;54.81;44.35;64.37;;
48967;Laerm;46511;53.148;8.204;2024-03-23T12:54:57;62.37;46.43;90.31;;
48967;Laerm;46511;53.148;8.204;2024-03-23T12:57:26;57.39;45.27;69.15;;
48967;Laerm;46511;53.148;8.204;2024-03-23T12:59:52;51.70;44.94;65.83;;
48967;Laerm;46511;53.148;8.204;2024-03-23T13:02:21;57.26;44.97;81.32;;
48967;Laerm;46511;53.148;8.204;2024-03-23T13:04:51;53.70;44.69;80.75;;
48967;Laerm;46511;53.148;8.204;2024-03-23T13:07:18;56.17;44.94;68.22;;
48967;Laerm;46511;53.148;8.204;2024-03-23T13:09:44;53.90;43.86;68.07;;
48967;Laerm;46511;53.148;8.204;2024-03-23T13:12:09;54.29;44.54;70.12;;
48967;Laerm;46511;53.148;8.204;2024-03-23T13:14:35;53.21;44.47;62.72;;
48967;Laerm;46511;53.148;8.204;2024-03-23T13:17:01;58.06;43.86;70.41;;
48967;Laerm;46511;53.148;8.204;2024-03-23T13:19:28;56.13;44.27;68.81;;
48967;Laerm;46511;53.148;8.204;2024-03-23T13:21:57;55.69;44.47;66.01;;
48967;Laerm;46511;53.148;8.204;2024-03-23T13:24:23;55.28;43.72;68.06;;
48967;Laerm;46511;53.148;8.204;2024-03-23T13:26:51;51.38;43.63;65.93;;
48967;Laerm;46511;53.148;8.204;2024-03-23T13:29:17;53.49;43.19;66.57;;
48967;Laerm;46511;53.148;8.204;2024-03-23T13:31:43;51.54;43.39;64.72;;
48967;Laerm;46511;53.148;8.204;2024-03-23T13:34:08;53.15;43.05;65.37;;
48967;Laerm;46511;53.148;8.204;2024-03-23T13:36:34;55.06;43.72;64.25;;
48967;Laerm;46511;53.148;8.204;2024-03-23T13:39:01;56.85;44.27;70.16;;
48967;Laerm;46511;53.148;8.204;2024-03-23T13:41:30;54.08;45.14;65.22;;
48967;Laerm;46511;53.148;8.204;2024-03-23T13:43:56;52.40;43.99;63.43;;
48967;Laerm;46511;53.148;8.204;2024-03-23T13:46:21;54.14;44.87;66.43;;
48967;Laerm;46511;53.148;8.204;2024-03-23T13:48:47;59.62;45.83;68.06;;
48967;Laerm;46511;53.148;8.204;2024-03-23T13:51:12;56.77;46.33;68.88;;
48967;Laerm;46511;53.148;8.204;2024-03-23T13:53:38;55.04;44.43;66.49;;
48967;Laerm;46511;53.148;8.204;2024-03-23T13:56:04;53.44;44.83;67.97;;
48967;Laerm;46511;53.148;8.204;2024-03-23T13:58:30;54.67;45.01;70.53;;
48967;Laerm;46511;53.148;8.204;2024-03-23T14:00:56;54.43;45.01;71.14;;
48967;Laerm;46511;53.148;8.204;2024-03-23T14:03:22;55.36;44.73;73.41;;
48967;Laerm;46511;53.148;8.204;2024-03-23T14:05:48;55.98;44.97;66.56;;
48967;Laerm;46511;53.148;8.204;2024-03-23T14:08:14;58.57;44.94;70.22;;
48967;Laerm;46511;53.148;8.204;2024-03-23T14:10:43;53.04;44.35;71.61;;
48967;Laerm;46511;53.148;8.204;2024-03-23T14:13:08;53.59;44.58;65.09;;
48967;Laerm;46511;53.148;8.204;2024-03-23T14:15:34;54.98;44.31;66.71;;
48967;Laerm;46511;53.148;8.204;2024-03-23T14:18:02;55.71;43.72;65.46;;
48967;Laerm;46511;53.148;8.204;2024-03-23T14:20:28;56.66;44.80;66.17;;
48967;Laerm;46511;53.148;8.204;2024-03-23T14:22:54;51.29;44.87;63.77;;
48967;Laerm;46511;53.148;8.204;2024-03-23T14:25:19;53.48;44.03;66.03;;
48967;Laerm;46511;53.148;8.204;2024-03-23T14:27:46;52.91;44.15;64.99;;
48967;Laerm;46511;53.148;8.204;2024-03-23T14:30:12;55.59;44.49;66.98;;
48967;Laerm;46511;53.148;8.204;2024-03-23T14:32:39;56.93;44.58;68.48;;
48967;Laerm;46511;53.148;8.204;2024-03-23T14:35:05;53.61;45.30;73.42;;
48967;Laerm;46511;53.148;8.204;2024-03-23T14:37:39;56.69;45.89;66.92;;
48967;Laerm;46511;53.148;8.204;2024-03-23T14:40:07;56.39;44.43;71.33;;
48967;Laerm;46511;53.148;8.204;2024-03-23T14:42:33;54.63;44.15;65.93;;
48967;Laerm;46511;53.148;8.204;2024-03-23T14:44:58;54.40;44.97;67.90;;
48967;Laerm;46511;53.148;8.204;2024-03-23T14:47:24;55.05;44.23;65.90;;